createdAt,value
2022-10-30T00:00:49.729Z,12.70
2022-10-30T00:03:24.638Z,12.80
2022-10-30T00:05:52.289Z,12.80
2022-10-30T00:08:28.903Z,12.80
2022-10-30T00:10:56.728Z,12.80
2022-10-30T00:13:30.693Z,12.80
2022-10-30T00:15:57.799Z,12.80
2022-10-30T00:18:32.076Z,12.90
2022-10-30T00:21:12.405Z,12.90
2022-10-30T00:23:48.132Z,12.90
2022-10-30T00:26:16.312Z,12.90
2022-10-30T00:28:49.741Z,12.80
2022-10-30T00:31:16.933Z,12.80
2022-10-30T00:33:51.107Z,12.80
2022-10-30T00:36:24.664Z,12.80
2022-10-30T00:38:58.718Z,12.70
2022-10-30T00:41:25.980Z,12.70
2022-10-30T00:43:59.737Z,12.70
2022-10-30T00:46:47.732Z,12.70
2022-10-30T00:49:17.398Z,12.70
2022-10-30T00:52:05.748Z,12.70
2022-10-30T00:54:39.477Z,12.70
2022-10-30T00:57:16.704Z,12.70
2022-10-30T00:59:44.403Z,12.70
2022-10-30T01:02:18.866Z,12.70
2022-10-30T01:04:47.464Z,12.70
2022-10-30T01:07:23.913Z,12.70
2022-10-30T01:09:51.104Z,12.70
2022-10-30T01:12:25.677Z,12.70
2022-10-30T01:14:58.757Z,12.70
2022-10-30T01:18:00.051Z,12.60
2022-10-30T01:20:38.797Z,12.70
2022-10-30T01:23:40.753Z,12.70
2022-10-30T01:26:31.808Z,12.70
2022-10-30T01:29:12.790Z,12.70
2022-10-30T01:32:03.484Z,12.60
2022-10-30T01:34:47.763Z,12.60
2022-10-30T01:37:59.960Z,12.60
2022-10-30T01:40:34.947Z,12.60
2022-10-30T01:43:08.695Z,12.60
2022-10-30T01:46:20.488Z,12.60
2022-10-30T01:49:27.723Z,12.60
2022-10-30T01:52:33.942Z,12.60
2022-10-30T01:55:39.743Z,12.50
2022-10-30T01:58:16.764Z,12.50
2022-10-30T02:00:55.826Z,12.50
2022-10-30T02:03:30.758Z,12.50
2022-10-30T02:06:04.767Z,12.50
2022-10-30T02:08:32.635Z,12.50
2022-10-30T02:11:06.713Z,12.60
2022-10-30T02:13:40.792Z,12.60
2022-10-30T02:16:08.938Z,12.60
2022-10-30T02:18:42.789Z,12.60
2022-10-30T02:21:10.389Z,12.60
2022-10-30T02:23:44.668Z,12.60
2022-10-30T02:26:11.882Z,12.60
2022-10-30T02:28:45.823Z,12.70
2022-10-30T02:31:13.148Z,12.60
2022-10-30T02:33:53.033Z,12.60
2022-10-30T02:36:26.725Z,12.60
2022-10-30T02:39:02.766Z,12.50
2022-10-30T02:41:36.770Z,12.50
2022-10-30T02:44:05.523Z,12.50
2022-10-30T02:46:39.813Z,12.50
2022-10-30T02:49:07.284Z,12.50
2022-10-30T02:51:40.784Z,12.50
2022-10-30T02:54:21.856Z,12.50
2022-10-30T02:56:55.688Z,12.50
2022-10-30T02:59:22.854Z,12.50
2022-10-30T03:01:56.839Z,12.50
2022-10-30T03:04:31.074Z,12.50
2022-10-30T03:07:04.958Z,12.60
2022-10-30T03:09:32.042Z,12.60
2022-10-30T03:12:05.778Z,12.60
2022-10-30T03:14:33.064Z,12.60
2022-10-30T03:17:06.934Z,12.60
2022-10-30T03:19:40.764Z,12.60
2022-10-30T03:22:08.299Z,12.60
2022-10-30T03:24:41.789Z,12.70
2022-10-30T03:27:08.988Z,12.70
2022-10-30T03:29:43.113Z,12.80
2022-10-30T03:32:14.232Z,12.80
2022-10-30T03:34:47.781Z,12.80
2022-10-30T03:37:15.044Z,12.70
2022-10-30T03:39:48.788Z,12.70
2022-10-30T03:42:16.004Z,12.70
2022-10-30T03:44:50.113Z,12.60
2022-10-30T03:47:17.854Z,12.60
2022-10-30T03:49:51.973Z,12.60
2022-10-30T03:52:38.816Z,12.60
2022-10-30T03:55:12.752Z,12.70
2022-10-30T03:57:40.314Z,12.70
2022-10-30T04:00:14.770Z,12.70
2022-10-30T04:02:50.643Z,12.70
2022-10-30T04:05:26.683Z,12.70
2022-10-30T04:08:02.449Z,12.70
2022-10-30T04:10:36.765Z,12.70
2022-10-30T04:13:07.198Z,12.70
2022-10-30T04:15:41.788Z,12.70
2022-10-30T04:18:18.844Z,12.80
2022-10-30T04:20:46.453Z,12.80
2022-10-30T04:23:17.005Z,12.80
2022-10-30T04:25:51.729Z,12.80
2022-10-30T04:28:21.788Z,12.80
2022-10-30T04:30:55.993Z,12.70
2022-10-30T04:33:23.429Z,12.70
2022-10-30T04:35:56.694Z,12.60
2022-10-30T04:38:30.939Z,12.60
2022-10-30T04:40:58.267Z,12.60
2022-10-30T04:43:26.052Z,12.60
2022-10-30T04:45:59.764Z,12.50
2022-10-30T04:48:27.925Z,12.50
2022-10-30T04:51:01.845Z,12.50
2022-10-30T04:53:36.068Z,12.50
2022-10-30T04:56:15.773Z,12.50
2022-10-30T04:58:43.913Z,12.50
2022-10-30T05:01:17.937Z,12.50
2022-10-30T05:03:46.225Z,12.50
2022-10-30T05:06:29.819Z,12.40
2022-10-30T05:08:58.327Z,12.40
2022-10-30T05:11:31.812Z,12.40
2022-10-30T05:13:58.943Z,12.40
2022-10-30T05:16:32.823Z,12.30
2022-10-30T05:19:07.355Z,12.40
2022-10-30T05:21:35.122Z,12.40
2022-10-30T05:24:08.712Z,12.40
2022-10-30T05:26:35.940Z,12.40
2022-10-30T05:29:10.012Z,12.30
2022-10-30T05:31:37.213Z,12.30
2022-10-30T05:34:11.718Z,12.30
2022-10-30T05:36:38.910Z,12.40
2022-10-30T05:39:12.849Z,12.40
2022-10-30T05:41:40.240Z,12.40
2022-10-30T05:44:28.564Z,12.40
2022-10-30T05:47:08.794Z,12.40
2022-10-30T05:49:43.124Z,12.40
2022-10-30T05:52:16.947Z,12.40
2022-10-30T05:54:56.790Z,12.40
2022-10-30T05:57:30.797Z,12.30
2022-10-30T05:59:58.163Z,12.30
2022-10-30T06:02:32.046Z,12.30
2022-10-30T06:04:59.603Z,12.40
2022-10-30T06:07:33.757Z,12.40
2022-10-30T06:10:00.950Z,12.40
2022-10-30T06:12:34.919Z,12.40
2022-10-30T06:15:02.353Z,12.30
2022-10-30T06:17:39.033Z,12.30
2022-10-30T06:20:06.703Z,12.30
2022-10-30T06:22:40.828Z,12.20
2022-10-30T06:25:08.730Z,12.20
2022-10-30T06:27:36.088Z,12.20
2022-10-30T06:30:09.807Z,12.20
2022-10-30T06:32:37.004Z,12.10
2022-10-30T06:35:10.963Z,12.10
2022-10-30T06:37:41.319Z,12.10
2022-10-30T06:40:16.711Z,12.10
2022-10-30T06:42:45.869Z,12.10
2022-10-30T06:45:20.707Z,12.10
2022-10-30T06:47:49.473Z,12.20
2022-10-30T06:50:25.913Z,12.20
2022-10-30T06:53:06.873Z,12.20
2022-10-30T06:55:40.809Z,12.20
2022-10-30T06:58:14.812Z,12.20
2022-10-30T07:03:17.293Z,12.20
2022-10-30T07:05:50.860Z,12.30
2022-10-30T07:08:18.468Z,12.30
2022-10-30T07:10:52.828Z,12.30
2022-10-30T07:13:20.047Z,12.20
2022-10-30T07:15:53.828Z,12.20
2022-10-30T07:18:21.077Z,12.20
2022-10-30T07:20:54.859Z,12.20
2022-10-30T07:23:22.174Z,12.20
2022-10-30T07:26:02.466Z,12.20
2022-10-30T07:28:31.937Z,12.20
2022-10-30T07:31:05.809Z,12.30
2022-10-30T07:33:33.099Z,12.30
2022-10-30T07:36:11.080Z,12.30
2022-10-30T07:38:38.428Z,12.30
2022-10-30T07:41:11.858Z,12.40
2022-10-30T07:43:39.183Z,12.40
2022-10-30T07:46:13.195Z,12.40
2022-10-30T07:48:46.767Z,12.40
2022-10-30T07:51:21.845Z,12.50
2022-10-30T07:53:56.344Z,12.50
2022-10-30T07:56:36.868Z,12.50
2022-10-30T07:59:11.145Z,12.50
2022-10-30T08:01:45.007Z,12.60
2022-10-30T08:04:14.463Z,12.60
2022-10-30T08:06:49.383Z,12.60
2022-10-30T08:09:22.896Z,12.60
2022-10-30T08:11:50.163Z,12.70
2022-10-30T08:14:23.904Z,12.70
2022-10-30T08:16:59.095Z,12.70
2022-10-30T08:19:32.823Z,12.70
2022-10-30T08:22:07.025Z,12.80
2022-10-30T08:24:35.925Z,12.80
2022-10-30T08:27:10.802Z,12.80
2022-10-30T08:29:44.970Z,12.90
2022-10-30T08:32:18.825Z,12.90
2022-10-30T08:34:46.025Z,13.00
2022-10-30T08:37:20.005Z,13.10
2022-10-30T08:39:56.814Z,13.10
2022-10-30T08:42:23.975Z,13.20
2022-10-30T08:44:57.885Z,13.20
2022-10-30T08:47:25.135Z,13.30
2022-10-30T08:49:58.864Z,13.30
2022-10-30T08:52:33.084Z,13.30
2022-10-30T08:55:13.967Z,13.40
2022-10-30T08:57:41.355Z,13.40
2022-10-30T09:00:16.012Z,13.40
2022-10-30T09:02:43.453Z,13.40
2022-10-30T09:05:17.912Z,13.40
2022-10-30T09:07:45.513Z,13.50
2022-10-30T09:10:19.768Z,13.50
2022-10-30T09:12:47.223Z,13.50
2022-10-30T09:15:20.748Z,13.60
2022-10-30T09:17:49.588Z,13.60
2022-10-30T09:20:23.953Z,13.70
2022-10-30T09:22:51.989Z,13.80
2022-10-30T09:25:26.050Z,13.80
2022-10-30T09:27:54.172Z,13.90
2022-10-30T09:30:29.045Z,13.90
2022-10-30T09:33:03.309Z,13.90
2022-10-30T09:35:38.982Z,13.90
2022-10-30T09:38:06.329Z,14.00
2022-10-30T09:41:05.045Z,14.00
2022-10-30T09:43:47.499Z,14.00
2022-10-30T09:46:42.919Z,14.10
2022-10-30T09:49:22.081Z,14.10
2022-10-30T09:52:24.900Z,14.20
2022-10-30T09:55:23.960Z,14.30
2022-10-30T09:57:58.340Z,14.40
2022-10-30T10:00:45.219Z,14.40
2022-10-30T10:03:42.472Z,14.50
2022-10-30T10:06:24.793Z,14.60
2022-10-30T10:09:11.904Z,14.70
2022-10-30T10:11:42.334Z,14.80
2022-10-30T10:14:25.837Z,14.80
2022-10-30T10:17:01.912Z,14.80
2022-10-30T10:20:01.928Z,14.80
2022-10-30T10:22:54.179Z,14.70
2022-10-30T10:25:22.075Z,14.70
2022-10-30T10:28:36.687Z,14.70
2022-10-30T10:31:19.259Z,14.70
2022-10-30T10:34:02.314Z,14.70
2022-10-30T10:36:49.094Z,14.70
2022-10-30T10:39:28.409Z,14.80
2022-10-30T10:42:13.915Z,15.00
2022-10-30T10:44:47.809Z,15.10
2022-10-30T10:47:25.125Z,15.30
2022-10-30T10:50:21.920Z,15.60
2022-10-30T10:53:04.884Z,15.80
2022-10-30T10:55:41.704Z,16.00
2022-10-30T10:58:53.174Z,16.30
2022-10-30T11:01:52.046Z,16.50
2022-10-30T11:04:48.565Z,16.80
2022-10-30T11:07:32.245Z,17.00
2022-10-30T11:10:00.154Z,17.20
2022-10-30T11:12:44.860Z,17.30
2022-10-30T11:15:24.296Z,17.40
2022-10-30T11:18:10.826Z,17.60
2022-10-30T11:20:50.795Z,17.70
2022-10-30T11:23:44.063Z,17.80
2022-10-30T11:26:29.981Z,17.90
2022-10-30T11:29:11.664Z,17.90
2022-10-30T11:31:52.925Z,18.10
2022-10-30T11:34:31.066Z,18.20
2022-10-30T11:36:59.076Z,18.30
2022-10-30T11:39:42.924Z,18.30
2022-10-30T11:42:19.669Z,18.30
2022-10-30T11:44:58.044Z,18.40
2022-10-30T11:47:47.015Z,18.40
2022-10-30T11:50:24.525Z,18.40
2022-10-30T11:53:24.004Z,18.40
2022-10-30T11:55:59.728Z,18.40
2022-10-30T11:58:45.815Z,18.40
2022-10-30T12:01:28.923Z,18.40
2022-10-30T12:04:05.286Z,18.30
2022-10-30T12:06:39.085Z,18.30
2022-10-30T12:09:21.255Z,18.30
2022-10-30T12:11:55.910Z,18.30
2022-10-30T12:14:31.939Z,18.20
2022-10-30T12:16:59.914Z,18.20
2022-10-30T12:19:33.879Z,18.20
2022-10-30T12:22:06.331Z,18.20
2022-10-30T12:24:46.831Z,18.30
2022-10-30T12:27:23.838Z,18.20
2022-10-30T12:30:18.199Z,18.20
2022-10-30T12:33:11.811Z,18.20
2022-10-30T12:35:51.354Z,18.20
2022-10-30T12:38:40.074Z,18.10
2022-10-30T12:41:34.919Z,18.10
2022-10-30T12:44:10.764Z,18.10
2022-10-30T12:47:15.904Z,18.10
2022-10-30T12:52:48.889Z,18.10
2022-10-30T12:55:53.930Z,18.10
2022-10-30T12:58:54.918Z,18.10
2022-10-30T13:01:52.027Z,18.10
2022-10-30T13:04:41.868Z,18.10
2022-10-30T13:07:45.898Z,18.10
2022-10-30T13:10:22.460Z,18.20
2022-10-30T13:13:01.982Z,18.20
2022-10-30T13:15:37.791Z,18.20
2022-10-30T13:18:30.229Z,18.20
2022-10-30T13:21:18.834Z,18.20
2022-10-30T13:23:52.054Z,18.20
2022-10-30T13:27:08.939Z,18.20
2022-10-30T13:30:01.003Z,18.10
2022-10-30T13:32:56.227Z,18.10
2022-10-30T13:36:01.019Z,18.00
2022-10-30T13:39:05.789Z,18.00
2022-10-30T13:42:08.919Z,18.00
2022-10-30T13:45:12.829Z,18.00
2022-10-30T13:48:03.500Z,18.00
2022-10-30T13:51:10.460Z,17.90
2022-10-30T13:54:03.278Z,17.90
2022-10-30T13:56:38.924Z,17.80
2022-10-30T13:59:58.768Z,17.80
2022-10-30T14:02:38.057Z,17.80
2022-10-30T14:05:08.473Z,17.70
2022-10-30T14:08:03.633Z,17.60
2022-10-30T14:10:53.380Z,17.60
2022-10-30T14:13:36.023Z,17.50
2022-10-30T14:16:14.494Z,17.40
2022-10-30T14:19:14.992Z,17.40
2022-10-30T14:22:06.773Z,17.30
2022-10-30T14:24:41.932Z,17.20
2022-10-30T14:27:11.983Z,17.20
2022-10-30T14:29:53.924Z,17.10
2022-10-30T14:32:24.015Z,17.10
2022-10-30T14:34:57.893Z,17.00
2022-10-30T14:37:27.883Z,17.00
2022-10-30T14:40:03.282Z,16.90
2022-10-30T14:42:58.152Z,16.90
2022-10-30T14:45:46.911Z,16.80
2022-10-30T14:48:39.893Z,16.80
2022-10-30T14:51:17.974Z,16.70
2022-10-30T14:54:06.929Z,16.70
2022-10-30T14:56:55.970Z,16.60
2022-10-30T14:59:32.159Z,16.60
2022-10-30T15:02:09.099Z,16.50
2022-10-30T15:05:09.760Z,16.50
2022-10-30T15:08:16.116Z,16.50
2022-10-30T15:11:12.831Z,16.40
2022-10-30T15:14:04.263Z,16.40
2022-10-30T15:16:35.874Z,16.30
2022-10-30T15:19:21.111Z,16.30
2022-10-30T15:21:55.344Z,16.20
2022-10-30T15:24:32.705Z,16.20
2022-10-30T15:27:01.863Z,16.20
2022-10-30T15:29:40.000Z,16.10
2022-10-30T15:32:19.484Z,16.10
2022-10-30T15:35:02.993Z,16.00
2022-10-30T15:37:30.605Z,16.00
2022-10-30T15:40:23.895Z,15.90
2022-10-30T15:42:54.068Z,15.90
2022-10-30T15:45:38.075Z,15.90
2022-10-30T15:48:26.955Z,15.80
2022-10-30T15:51:02.390Z,15.80
2022-10-30T15:53:59.984Z,15.70
2022-10-30T15:56:54.080Z,15.60
2022-10-30T15:59:35.954Z,15.60
2022-10-30T16:02:03.271Z,15.50
2022-10-30T16:04:42.975Z,15.50
2022-10-30T16:07:27.862Z,15.50
2022-10-30T16:10:10.296Z,15.40
2022-10-30T16:12:37.594Z,15.40
2022-10-30T16:15:16.245Z,15.30
2022-10-30T16:17:53.157Z,15.30
2022-10-30T16:20:24.443Z,15.20
2022-10-30T16:22:57.987Z,15.20
2022-10-30T16:25:26.221Z,15.20
2022-10-30T16:28:00.215Z,15.10
2022-10-30T16:30:32.305Z,15.10
2022-10-30T16:33:06.876Z,15.10
2022-10-30T16:35:34.355Z,15.00
2022-10-30T16:38:10.999Z,15.00
2022-10-30T16:40:38.899Z,14.90
2022-10-30T16:43:39.890Z,14.90
2022-10-30T16:46:52.111Z,14.90
2022-10-30T16:49:23.494Z,14.80
2022-10-30T16:52:06.930Z,14.80
2022-10-30T16:54:52.934Z,14.80
2022-10-30T16:57:38.781Z,14.80
2022-10-30T17:00:13.779Z,14.70
2022-10-30T17:02:44.974Z,14.70
2022-10-30T17:05:26.866Z,14.70
2022-10-30T17:08:27.840Z,14.70
2022-10-30T17:11:05.878Z,14.70
2022-10-30T17:13:56.664Z,14.80
2022-10-30T17:16:35.170Z,14.80
2022-10-30T17:19:24.851Z,14.70
2022-10-30T17:21:59.986Z,14.70
2022-10-30T17:24:34.997Z,14.60
2022-10-30T17:27:12.976Z,14.60
2022-10-30T17:29:43.130Z,14.50
2022-10-30T17:32:29.022Z,14.50
2022-10-30T17:35:13.495Z,14.50
2022-10-30T17:37:46.971Z,14.40
2022-10-30T17:40:21.195Z,14.40
2022-10-30T17:42:49.713Z,14.30
2022-10-30T17:45:24.027Z,14.30
2022-10-30T17:47:51.381Z,14.30
2022-10-30T17:50:25.356Z,14.20
2022-10-30T17:52:52.673Z,14.20
2022-10-30T17:55:43.462Z,14.10
2022-10-30T17:58:17.717Z,14.10
2022-10-30T18:00:52.146Z,14.00
2022-10-30T18:03:19.483Z,14.10
2022-10-30T18:05:57.767Z,14.00
2022-10-30T18:08:33.420Z,14.10
2022-10-30T18:11:06.981Z,14.10
2022-10-30T18:13:35.221Z,14.10
2022-10-30T18:16:08.962Z,14.00
2022-10-30T18:18:42.954Z,14.00
2022-10-30T18:21:25.013Z,14.00
2022-10-30T18:23:53.530Z,14.00
2022-10-30T18:26:30.032Z,14.00
2022-10-30T18:28:57.461Z,14.00
2022-10-30T18:31:32.091Z,14.00
2022-10-30T18:33:59.372Z,14.00
2022-10-30T18:36:34.012Z,14.00
2022-10-30T18:39:08.050Z,13.90
2022-10-30T18:41:44.973Z,13.90
2022-10-30T18:44:24.110Z,13.90
2022-10-30T18:47:02.735Z,13.90
2022-10-30T18:49:33.356Z,13.80
2022-10-30T18:52:06.992Z,13.80
2022-10-30T18:54:41.050Z,13.80
2022-10-30T18:57:15.351Z,13.70
2022-10-30T18:59:48.981Z,13.80
2022-10-30T19:02:24.369Z,13.70
2022-10-30T19:04:58.314Z,13.70
2022-10-30T19:07:25.532Z,13.60
2022-10-30T19:09:52.821Z,13.60
2022-10-30T19:12:27.317Z,13.50
2022-10-30T19:14:54.841Z,13.50
2022-10-30T19:17:21.991Z,13.50
2022-10-30T19:19:56.014Z,13.40
2022-10-30T19:22:23.582Z,13.40
2022-10-30T19:24:58.022Z,13.40
2022-10-30T19:27:25.494Z,13.40
2022-10-30T19:29:59.763Z,13.40
2022-10-30T19:32:27.110Z,13.40
2022-10-30T19:35:01.040Z,13.50
2022-10-30T19:37:28.462Z,13.50
2022-10-30T19:40:02.244Z,13.50
2022-10-30T19:42:30.175Z,13.60
2022-10-30T19:45:03.991Z,13.60
2022-10-30T19:47:31.202Z,13.60
2022-10-30T19:50:04.964Z,13.70
2022-10-30T19:52:32.112Z,13.70
2022-10-30T19:55:13.400Z,13.80
2022-10-30T19:57:47.073Z,13.80
2022-10-30T20:00:20.981Z,13.80
2022-10-30T20:02:55.000Z,13.80
2022-10-30T20:05:41.987Z,13.80
2022-10-30T20:08:14.861Z,13.80
2022-10-30T20:11:00.092Z,13.80
2022-10-30T20:13:29.773Z,13.70
2022-10-30T20:16:06.979Z,13.70
2022-10-30T20:18:43.043Z,13.70
2022-10-30T20:21:13.811Z,13.70
2022-10-30T20:23:48.189Z,13.60
2022-10-30T20:26:31.019Z,13.60
2022-10-30T20:29:08.050Z,13.60
2022-10-30T20:31:35.361Z,13.60
2022-10-30T20:34:09.901Z,13.50
2022-10-30T20:36:37.431Z,13.50
2022-10-30T20:39:12.069Z,13.50
2022-10-30T20:41:48.062Z,13.50
2022-10-30T20:44:22.050Z,13.40
2022-10-30T20:46:56.322Z,13.50
2022-10-30T20:49:24.801Z,13.50
2022-10-30T20:51:59.461Z,13.50
2022-10-30T20:54:33.242Z,13.50
2022-10-30T20:57:13.050Z,13.50
2022-10-30T20:59:47.021Z,13.50
2022-10-30T21:02:21.022Z,13.40
2022-10-30T21:04:48.721Z,13.30
2022-10-30T21:07:23.340Z,13.30
2022-10-30T21:09:51.501Z,13.30
2022-10-30T21:12:27.201Z,13.30
2022-10-30T21:14:54.458Z,13.30
2022-10-30T21:17:28.221Z,13.30
2022-10-30T21:19:55.919Z,13.20
2022-10-30T21:22:30.003Z,13.20
2022-10-30T21:24:57.431Z,13.10
2022-10-30T21:27:31.251Z,13.20
2022-10-30T21:29:58.760Z,13.20
2022-10-30T21:32:33.221Z,13.20
2022-10-30T21:35:00.871Z,13.20
2022-10-30T21:37:35.091Z,13.30
2022-10-30T21:40:02.362Z,13.30
2022-10-30T21:42:35.982Z,13.40
2022-10-30T21:45:03.724Z,13.40
2022-10-30T21:47:38.101Z,13.40
2022-10-30T21:50:07.701Z,13.40
2022-10-30T21:52:45.041Z,13.40
2022-10-30T21:55:26.091Z,13.40
2022-10-30T21:58:06.283Z,13.40
2022-10-30T22:00:33.752Z,13.40
2022-10-30T22:03:08.010Z,13.40
2022-10-30T22:05:42.030Z,13.40
2022-10-30T22:08:09.186Z,13.40
2022-10-30T22:10:43.194Z,13.40
2022-10-30T22:13:13.343Z,13.40
2022-10-30T22:15:47.034Z,13.40
2022-10-30T22:18:14.270Z,13.40
2022-10-30T22:20:48.195Z,13.40
2022-10-30T22:23:15.396Z,13.50
2022-10-30T22:25:49.000Z,13.50
2022-10-30T22:30:56.065Z,13.40
2022-10-30T22:33:23.289Z,13.40
2022-10-30T22:35:50.857Z,13.40
2022-10-30T22:38:25.381Z,13.40
2022-10-30T22:40:52.815Z,13.40
2022-10-30T22:43:27.027Z,13.40
2022-10-30T22:45:54.475Z,13.40
2022-10-30T22:48:27.955Z,13.50
2022-10-30T22:51:13.458Z,13.40
2022-10-30T22:53:52.079Z,13.50
2022-10-30T22:56:35.094Z,13.40
2022-10-30T22:59:05.057Z,13.50
2022-10-30T23:01:41.033Z,13.50
2022-10-30T23:04:10.459Z,13.50
2022-10-30T23:06:44.025Z,13.50
2022-10-30T23:09:17.450Z,13.50
2022-10-30T23:11:50.984Z,13.50
2022-10-30T23:14:26.060Z,13.50
2022-10-30T23:16:53.145Z,13.60
2022-10-30T23:19:27.086Z,13.60
2022-10-30T23:21:59.120Z,13.60
2022-10-30T23:24:34.154Z,13.60
2022-10-30T23:27:08.035Z,13.60
2022-10-30T23:29:35.220Z,13.60
2022-10-30T23:32:02.619Z,13.60
2022-10-30T23:34:36.018Z,13.60
2022-10-30T23:37:03.195Z,13.60
2022-10-30T23:39:37.049Z,13.60
2022-10-30T23:42:04.761Z,13.60
2022-10-30T23:44:38.991Z,13.60
2022-10-30T23:47:06.641Z,13.60
2022-10-30T23:49:40.039Z,13.60
2022-10-30T23:52:07.362Z,13.50
2022-10-30T23:54:48.160Z,13.50
2022-10-30T23:57:21.727Z,13.50
2022-10-30T23:59:55.105Z,13.50
